createdAt,value
2019-02-10T14:28:12.543Z,20.092468
2019-02-10T14:28:20.396Z,20.092468
2019-02-10T14:28:28.320Z,20.092468
2019-02-10T14:28:36.231Z,20.092468
2019-02-10T14:28:44.102Z,20.092468
2019-02-10T14:28:51.975Z,20.072327
2019-02-10T14:28:59.902Z,20.092468
2019-02-10T14:29:08.888Z,20.092468
2019-02-10T14:29:16.778Z,20.072327
2019-02-10T14:29:25.686Z,20.072327
2019-02-10T14:29:33.638Z,20.092468
2019-02-10T14:29:41.482Z,20.092468
2019-02-10T14:29:49.538Z,20.072327
2019-02-10T14:29:57.467Z,20.072327
2019-02-10T14:30:05.350Z,20.092468
2019-02-10T14:30:13.242Z,20.072327
2019-02-10T14:30:22.128Z,20.072327
2019-02-10T14:30:30.036Z,20.072327
2019-02-10T14:30:37.938Z,20.072327
2019-02-10T14:30:45.832Z,20.092468
2019-02-10T14:30:53.721Z,20.092468
2019-02-10T14:31:01.630Z,20.072327
2019-02-10T14:31:09.534Z,20.072327
2019-02-10T14:31:17.430Z,20.092468
2019-02-10T14:31:25.295Z,20.092468
2019-02-10T14:31:33.213Z,20.072327
2019-02-10T14:31:41.133Z,20.072327
2019-02-10T14:31:49.010Z,20.092468
2019-02-10T14:31:57.927Z,20.072327
2019-02-10T14:32:05.801Z,20.072327
2019-02-10T14:32:13.746Z,20.072327
2019-02-10T14:32:21.675Z,20.092468
2019-02-10T14:32:29.604Z,20.072327
2019-02-10T14:32:37.463Z,20.092468
2019-02-10T14:32:45.367Z,20.072327
2019-02-10T14:32:53.373Z,20.072327
2019-02-10T14:33:01.265Z,20.072327
2019-02-10T14:33:09.142Z,20.072327
2019-02-10T14:33:17.016Z,20.072327
2019-02-10T14:33:24.954Z,20.092468
2019-02-10T14:33:38.800Z,20.092468
2019-02-10T14:33:44.744Z,20.092468
2019-02-10T14:33:52.641Z,20.092468
2019-02-10T14:34:00.562Z,20.092468
2019-02-10T14:34:09.407Z,20.092468
2019-02-10T14:34:18.308Z,20.072327
2019-02-10T14:34:26.245Z,20.072327
2019-02-10T14:34:34.203Z,20.072327
2019-02-10T14:34:42.088Z,20.072327
2019-02-10T14:34:50.986Z,20.072327
2019-02-10T14:34:58.870Z,20.072327
2019-02-10T14:35:06.756Z,20.072327
2019-02-10T14:35:15.643Z,20.092468
2019-02-10T14:35:23.520Z,20.092468
2019-02-10T14:35:31.412Z,20.072327
2019-02-10T14:35:39.421Z,20.072327
2019-02-10T14:35:47.313Z,20.072327
2019-02-10T14:35:56.198Z,20.072327
2019-02-10T14:36:04.079Z,20.092468
2019-02-10T14:36:12.010Z,20.072327
2019-02-10T14:36:20.898Z,20.092468
2019-02-10T14:36:28.801Z,20.092468
2019-02-10T14:36:37.660Z,20.092468
2019-02-10T14:36:46.582Z,20.072327
2019-02-10T14:36:54.498Z,20.092468
2019-02-10T14:37:02.400Z,20.072327
2019-02-10T14:37:10.332Z,20.092468
2019-02-10T14:37:19.224Z,20.092468
2019-02-10T14:37:29.133Z,20.072327
2019-02-10T14:37:37.058Z,20.072327
2019-02-10T14:37:44.989Z,20.092468
2019-02-10T14:37:52.921Z,20.072327
2019-02-10T14:38:01.972Z,20.092468
2019-02-10T14:38:10.277Z,20.062256
2019-02-10T14:38:18.156Z,20.072327
2019-02-10T14:38:27.059Z,20.072327
2019-02-10T14:38:39.974Z,20.072327
2019-02-10T14:38:47.889Z,20.072327
2019-02-10T14:38:55.896Z,20.072327
2019-02-10T14:39:03.795Z,20.092468
2019-02-10T14:39:11.703Z,20.102539
2019-02-10T14:39:20.590Z,20.092468
2019-02-10T14:39:28.566Z,20.072327
2019-02-10T14:39:36.456Z,20.072327
2019-02-10T14:39:44.378Z,20.092468
2019-02-10T14:39:52.288Z,20.072327
2019-02-10T14:40:00.303Z,20.092468
2019-02-10T14:40:09.094Z,20.072327
2019-02-10T14:40:16.986Z,20.072327
2019-02-10T14:40:28.405Z,20.092468
2019-02-10T14:40:36.762Z,20.092468
2019-02-10T14:40:44.629Z,20.072327
2019-02-10T14:40:52.498Z,20.092468
2019-02-10T14:41:00.391Z,20.092468
2019-02-10T14:41:08.340Z,20.092468
2019-02-10T14:41:16.377Z,20.072327
2019-02-10T14:41:24.311Z,20.092468
2019-02-10T14:41:32.192Z,20.092468
2019-02-10T14:41:41.044Z,20.072327
2019-02-10T14:41:48.974Z,20.092468
2019-02-10T14:41:56.903Z,20.092468
2019-02-10T14:42:04.770Z,20.092468
2019-02-10T14:42:12.635Z,20.092468
2019-02-10T14:42:20.514Z,20.102539
2019-02-10T14:42:28.413Z,20.092468
2019-02-10T14:42:36.296Z,20.092468
2019-02-10T14:42:44.237Z,20.092468
2019-02-10T14:42:52.121Z,20.092468
2019-02-10T14:43:00.046Z,20.092468
2019-02-10T14:43:07.953Z,20.092468
2019-02-10T14:43:15.818Z,20.092468
2019-02-10T14:43:23.690Z,20.092468
2019-02-10T14:43:31.570Z,20.102539
2019-02-10T14:43:39.534Z,20.092468
2019-02-10T14:43:47.398Z,20.092468
2019-02-10T14:43:55.293Z,20.092468
2019-02-10T14:44:03.177Z,20.092468
2019-02-10T14:44:11.047Z,20.092468
2019-02-10T14:44:19.910Z,20.092468
2019-02-10T14:44:27.873Z,20.092468
2019-02-10T14:44:35.694Z,20.102539
2019-02-10T14:44:44.592Z,20.092468
2019-02-10T14:44:52.487Z,20.092468
2019-02-10T14:45:00.385Z,20.102539
2019-02-10T14:45:08.301Z,20.092468
2019-02-10T14:45:17.188Z,20.102539
2019-02-10T14:45:25.077Z,20.092468
2019-02-10T14:45:33.005Z,20.092468
2019-02-10T14:45:41.917Z,20.102539
2019-02-10T14:45:49.883Z,20.102539
2019-02-10T14:45:57.876Z,20.092468
2019-02-10T14:46:05.786Z,20.092468
2019-02-10T14:46:13.641Z,20.102539
2019-02-10T14:46:21.580Z,20.102539
2019-02-10T14:46:29.469Z,20.102539
2019-02-10T14:46:37.405Z,20.102539
2019-02-10T14:46:45.291Z,20.102539
2019-02-10T14:46:53.925Z,20.11261
2019-02-10T14:47:01.808Z,20.11261
2019-02-10T14:47:09.702Z,20.11261
2019-02-10T14:47:17.591Z,20.102539
2019-02-10T14:47:25.485Z,20.11261
2019-02-10T14:47:33.351Z,20.102539
2019-02-10T14:47:41.323Z,20.102539
2019-02-10T14:47:49.214Z,20.11261
2019-02-10T14:47:57.106Z,20.102539
2019-02-10T14:48:04.998Z,20.132751
2019-02-10T14:48:12.862Z,20.132751
2019-02-10T14:48:20.744Z,20.102539
2019-02-10T14:48:28.635Z,20.11261
2019-02-10T14:48:36.518Z,20.11261
2019-02-10T14:48:44.569Z,20.11261
2019-02-10T14:48:52.449Z,20.11261
2019-02-10T14:49:00.418Z,20.11261
2019-02-10T14:49:08.319Z,20.11261
2019-02-10T14:49:16.312Z,20.132751
2019-02-10T14:49:24.195Z,20.11261
2019-02-10T14:49:32.114Z,20.132751
2019-02-10T14:49:40.007Z,20.11261
2019-02-10T14:49:47.948Z,20.132751
2019-02-10T14:49:55.879Z,20.132751
2019-02-10T14:50:03.781Z,20.132751
2019-02-10T14:50:11.638Z,20.132751
2019-02-10T14:50:19.502Z,20.132751
2019-02-10T14:50:28.977Z,20.132751
2019-02-10T14:50:36.311Z,20.11261
2019-02-10T14:50:44.232Z,20.11261
2019-02-10T14:50:52.109Z,20.142822
2019-02-10T14:51:00.020Z,20.142822
2019-02-10T14:51:07.941Z,20.142822
2019-02-10T14:51:15.843Z,20.132751
2019-02-10T14:51:23.737Z,20.132751
2019-02-10T14:51:31.623Z,20.132751
2019-02-10T14:51:39.574Z,20.142822
2019-02-10T14:51:47.479Z,20.142822
2019-02-10T14:51:55.379Z,20.132751
2019-02-10T14:52:03.259Z,20.142822
2019-02-10T14:52:11.193Z,20.142822
2019-02-10T14:52:19.092Z,20.132751
2019-02-10T14:52:26.978Z,20.142822
2019-02-10T14:52:34.943Z,20.162964
2019-02-10T14:52:42.891Z,20.142822
2019-02-10T14:52:50.787Z,20.142822
2019-02-10T14:52:58.688Z,20.142822
2019-02-10T14:53:06.643Z,20.142822
2019-02-10T14:53:14.601Z,20.162964
2019-02-10T14:53:22.498Z,20.162964
2019-02-10T14:53:31.374Z,20.142822
2019-02-10T14:53:39.318Z,20.162964
2019-02-10T14:53:47.240Z,20.162964
2019-02-10T14:53:55.228Z,20.162964
2019-02-10T14:54:03.146Z,20.162964
2019-02-10T14:54:11.153Z,20.162964
2019-02-10T14:54:19.055Z,20.162964
2019-02-10T14:54:26.966Z,20.173035
2019-02-10T14:54:34.873Z,20.162964
2019-02-10T14:54:42.882Z,20.162964
2019-02-10T14:54:50.793Z,20.173035
2019-02-10T14:54:58.700Z,20.173035
2019-02-10T14:55:06.615Z,20.173035
2019-02-10T14:55:14.558Z,20.162964
2019-02-10T14:55:22.437Z,20.162964
2019-02-10T14:55:30.337Z,20.173035
2019-02-10T14:55:39.242Z,20.173035
2019-02-10T14:55:47.112Z,20.173035
2019-02-10T14:55:55.018Z,20.173035
2019-02-10T14:56:02.953Z,20.173035
2019-02-10T14:56:11.848Z,20.183105
2019-02-10T14:56:19.769Z,20.183105
2019-02-10T14:56:27.731Z,20.183105
2019-02-10T14:56:35.644Z,20.173035
2019-02-10T14:56:43.607Z,20.183105
2019-02-10T14:56:51.519Z,20.173035
2019-02-10T14:56:59.442Z,20.173035
2019-02-10T14:57:07.345Z,20.183105
2019-02-10T14:57:15.311Z,20.183105
2019-02-10T14:57:23.193Z,20.183105
2019-02-10T14:57:31.109Z,20.183105
2019-02-10T14:57:39.000Z,20.203247
2019-02-10T14:57:46.940Z,20.183105
2019-02-10T14:57:54.851Z,20.203247
2019-02-10T14:58:02.758Z,20.183105
2019-02-10T14:58:10.721Z,20.183105
2019-02-10T14:58:18.649Z,20.183105
2019-02-10T14:58:26.581Z,20.183105
2019-02-10T14:58:42.681Z,20.203247
2019-02-10T14:58:46.395Z,20.203247
2019-02-10T14:58:54.265Z,20.203247
2019-02-10T14:59:02.150Z,20.203247
2019-02-10T14:59:10.059Z,20.203247
2019-02-10T14:59:17.949Z,20.203247
2019-02-10T14:59:25.840Z,20.203247
2019-02-10T14:59:33.745Z,20.203247
2019-02-10T14:59:41.751Z,20.203247
2019-02-10T14:59:50.666Z,20.203247
2019-02-10T14:59:58.550Z,20.203247
2019-02-10T15:00:06.459Z,20.213318
2019-02-10T15:00:14.399Z,20.203247
2019-02-10T15:00:22.292Z,20.213318
2019-02-10T15:00:30.291Z,20.213318
2019-02-10T15:00:38.136Z,20.203247
2019-02-10T15:00:46.052Z,20.213318
2019-02-10T15:00:53.973Z,20.203247
2019-02-10T15:01:01.883Z,20.213318
2019-02-10T15:01:09.788Z,20.213318
2019-02-10T15:01:17.784Z,20.213318
2019-02-10T15:01:25.700Z,20.203247
2019-02-10T15:01:33.656Z,20.203247
2019-02-10T15:01:41.830Z,20.213318
2019-02-10T15:01:49.737Z,20.213318
2019-02-10T15:01:57.694Z,20.213318
2019-02-10T15:02:05.607Z,20.213318
2019-02-10T15:02:13.579Z,20.213318
2019-02-10T15:02:21.559Z,20.233459
2019-02-10T15:02:29.480Z,20.213318
2019-02-10T15:02:37.434Z,20.233459
2019-02-10T15:02:45.347Z,20.213318
2019-02-10T15:02:53.213Z,20.213318
2019-02-10T15:03:01.146Z,20.233459
2019-02-10T15:03:09.100Z,20.213318
2019-02-10T15:03:16.974Z,20.233459
2019-02-10T15:03:25.881Z,20.233459
2019-02-10T15:03:33.782Z,20.233459
2019-02-10T15:03:41.744Z,20.233459
2019-02-10T15:03:49.669Z,20.213318
2019-02-10T15:03:57.599Z,20.253601
2019-02-10T15:04:05.495Z,20.233459
2019-02-10T15:04:13.429Z,20.233459
2019-02-10T15:04:22.417Z,20.233459
2019-02-10T15:04:30.317Z,20.253601
2019-02-10T15:04:38.225Z,20.233459
2019-02-10T15:04:46.187Z,20.233459
2019-02-10T15:04:54.088Z,20.253601
2019-02-10T15:05:02.043Z,20.253601
2019-02-10T15:05:10.960Z,20.253601
2019-02-10T15:05:19.830Z,20.253601
2019-02-10T15:05:27.807Z,20.253601
2019-02-10T15:05:35.801Z,20.233459
2019-02-10T15:05:43.750Z,20.233459
2019-02-10T15:05:51.665Z,20.253601
2019-02-10T15:05:59.615Z,20.253601
2019-02-10T15:06:07.505Z,20.253601
2019-02-10T15:06:15.435Z,20.253601
2019-02-10T15:06:23.383Z,20.263672
2019-02-10T15:06:31.345Z,20.253601
2019-02-10T15:06:39.299Z,20.233459
2019-02-10T15:06:47.202Z,20.253601
2019-02-10T15:06:55.110Z,20.253601
2019-02-10T15:07:03.026Z,20.253601
2019-02-10T15:07:10.905Z,20.263672
2019-02-10T15:07:25.093Z,20.253601
2019-02-10T15:07:32.709Z,20.263672
2019-02-10T15:07:41.694Z,20.263672
2019-02-10T15:07:49.566Z,20.263672
2019-02-10T15:07:57.508Z,20.263672
2019-02-10T15:08:05.618Z,20.263672
2019-02-10T15:08:13.517Z,20.283813
2019-02-10T15:08:21.509Z,20.263672
2019-02-10T15:08:29.435Z,20.263672
2019-02-10T15:08:37.381Z,20.263672
2019-02-10T15:08:45.291Z,20.283813
2019-02-10T15:08:53.184Z,20.263672
2019-02-10T15:09:01.112Z,20.283813
2019-02-10T15:09:08.963Z,20.263672
2019-02-10T15:09:16.910Z,20.283813
2019-02-10T15:09:24.786Z,20.283813
2019-02-10T15:09:32.765Z,20.283813
2019-02-10T15:09:40.638Z,20.283813
2019-02-10T15:09:48.665Z,20.263672
2019-02-10T15:09:56.698Z,20.283813
2019-02-10T15:10:04.605Z,20.283813
2019-02-10T15:10:13.594Z,20.283813
2019-02-10T15:10:21.491Z,20.283813
2019-02-10T15:10:29.411Z,20.293884
2019-02-10T15:10:41.898Z,20.283813
2019-02-10T15:10:49.327Z,20.283813
2019-02-10T15:10:57.219Z,20.293884
2019-02-10T15:11:05.090Z,20.293884
2019-02-10T15:11:14.017Z,20.283813
2019-02-10T15:11:21.975Z,20.283813
2019-02-10T15:11:29.899Z,20.283813
2019-02-10T15:11:37.794Z,20.293884
2019-02-10T15:11:47.653Z,20.293884
2019-02-10T15:11:55.557Z,20.293884
2019-02-10T15:12:04.469Z,20.293884
2019-02-10T15:12:13.398Z,20.293884
2019-02-10T15:12:21.267Z,20.293884
2019-02-10T15:12:29.149Z,20.283813
2019-02-10T15:12:37.090Z,20.293884
2019-02-10T15:12:45.016Z,20.293884
2019-02-10T15:12:53.015Z,20.293884
2019-02-10T15:13:00.920Z,20.293884
2019-02-10T15:13:09.779Z,20.293884
2019-02-10T15:13:17.657Z,20.293884
2019-02-10T15:13:25.557Z,20.293884
2019-02-10T15:13:33.459Z,20.293884
2019-02-10T15:13:41.364Z,20.314026
2019-02-10T15:13:49.231Z,20.314026
2019-02-10T15:13:57.113Z,20.314026
2019-02-10T15:14:05.009Z,20.314026
2019-02-10T15:14:12.946Z,20.314026
2019-02-10T15:14:20.873Z,20.293884
2019-02-10T15:14:29.740Z,20.314026
2019-02-10T15:14:37.647Z,20.314026
2019-02-10T15:14:45.544Z,20.314026
2019-02-10T15:14:53.508Z,20.324097
2019-02-10T15:15:01.437Z,20.314026
2019-02-10T15:15:09.339Z,20.314026
2019-02-10T15:15:17.270Z,20.314026
2019-02-10T15:15:25.173Z,20.314026
2019-02-10T15:15:33.109Z,20.314026
2019-02-10T15:15:40.966Z,20.324097
2019-02-10T15:15:49.709Z,20.314026
2019-02-10T15:15:56.815Z,20.324097
2019-02-10T15:16:04.701Z,20.314026
2019-02-10T15:16:12.596Z,20.314026
2019-02-10T15:16:21.507Z,20.314026
2019-02-10T15:16:29.474Z,20.324097
2019-02-10T15:16:38.454Z,20.324097
2019-02-10T15:16:47.376Z,20.314026
2019-02-10T15:16:55.361Z,20.324097
2019-02-10T15:17:03.357Z,20.314026
2019-02-10T15:17:11.236Z,20.334167
2019-02-10T15:17:19.147Z,20.324097
2019-02-10T15:17:27.093Z,20.324097
2019-02-10T15:17:36.112Z,20.324097
2019-02-10T15:17:44.954Z,20.334167
2019-02-10T15:17:52.874Z,20.324097
2019-02-10T15:18:01.782Z,20.334167
2019-02-10T15:18:09.763Z,20.334167
2019-02-10T15:18:17.701Z,20.324097
2019-02-10T15:18:25.633Z,20.334167
2019-02-10T15:18:33.606Z,20.334167
2019-02-10T15:18:41.658Z,20.334167
2019-02-10T15:18:49.544Z,20.324097
2019-02-10T15:18:57.528Z,20.324097
2019-02-10T15:19:05.533Z,20.334167
2019-02-10T15:19:13.464Z,20.324097
2019-02-10T15:19:21.524Z,20.334167
2019-02-10T15:19:29.851Z,20.354309
2019-02-10T15:19:37.928Z,20.334167
2019-02-10T15:19:47.167Z,20.334167
2019-02-10T15:19:55.073Z,20.354309
2019-02-10T15:20:02.969Z,20.334167
2019-02-10T15:20:10.853Z,20.334167
2019-02-10T15:20:19.791Z,20.334167
2019-02-10T15:20:27.770Z,20.334167
2019-02-10T15:20:35.694Z,20.354309
2019-02-10T15:20:43.572Z,20.354309
2019-02-10T15:20:51.574Z,20.354309
2019-02-10T15:20:59.558Z,20.354309
2019-02-10T15:21:07.487Z,20.354309
2019-02-10T15:21:15.398Z,20.354309
2019-02-10T15:21:23.450Z,20.334167
2019-02-10T15:21:31.373Z,20.354309
2019-02-10T15:21:39.262Z,20.354309
2019-02-10T15:21:48.246Z,20.36438
2019-02-10T15:21:56.199Z,20.354309
2019-02-10T15:22:04.113Z,20.354309
2019-02-10T15:22:12.988Z,20.36438
2019-02-10T15:22:20.896Z,20.36438
2019-02-10T15:22:28.878Z,20.354309
2019-02-10T15:22:37.787Z,20.384521
2019-02-10T15:22:45.685Z,20.354309
2019-02-10T15:22:53.588Z,20.36438
2019-02-10T15:23:01.521Z,20.36438
2019-02-10T15:23:09.474Z,20.36438
2019-02-10T15:23:18.403Z,20.354309
2019-02-10T15:23:26.279Z,20.36438
2019-02-10T15:23:34.249Z,20.36438
2019-02-10T15:23:42.180Z,20.36438
2019-02-10T15:23:50.107Z,20.36438
2019-02-10T15:23:58.072Z,20.36438
2019-02-10T15:24:07.021Z,20.36438
2019-02-10T15:24:14.875Z,20.36438
2019-02-10T15:24:23.807Z,20.36438
2019-02-10T15:24:32.669Z,20.36438
2019-02-10T15:24:40.701Z,20.384521
2019-02-10T15:24:48.579Z,20.36438
2019-02-10T15:24:56.581Z,20.36438
2019-02-10T15:25:04.527Z,20.384521
2019-02-10T15:25:12.475Z,20.384521
2019-02-10T15:25:22.418Z,20.36438
2019-02-10T15:25:31.289Z,20.384521
2019-02-10T15:25:39.182Z,20.36438
2019-02-10T15:25:47.069Z,20.384521
2019-02-10T15:25:55.966Z,20.384521
2019-02-10T15:26:04.850Z,20.384521
2019-02-10T15:26:12.747Z,20.384521
2019-02-10T15:26:20.688Z,20.394592
2019-02-10T15:26:28.611Z,20.384521
2019-02-10T15:26:36.597Z,20.384521
2019-02-10T15:26:44.515Z,20.384521
2019-02-10T15:26:52.554Z,20.384521
2019-02-10T15:27:01.514Z,20.384521
2019-02-10T15:27:09.482Z,20.384521
2019-02-10T15:27:17.381Z,20.394592
2019-02-10T15:27:25.326Z,20.394592
2019-02-10T15:27:33.254Z,20.36438
2019-02-10T15:27:41.189Z,20.394592
2019-02-10T15:27:50.120Z,20.394592
2019-02-10T15:27:58.725Z,20.394592
2019-02-10T15:28:06.646Z,20.394592
2019-02-10T15:28:14.591Z,20.394592
2019-02-10T15:28:22.519Z,20.394592
2019-02-10T15:28:30.420Z,20.394592
2019-02-10T15:28:39.355Z,20.394592
2019-02-10T15:28:47.290Z,20.394592
2019-02-10T15:28:55.224Z,20.394592
2019-02-10T15:29:03.231Z,20.394592
2019-02-10T15:29:11.148Z,20.394592
2019-02-10T15:29:20.044Z,20.384521
2019-02-10T15:29:27.974Z,20.394592
2019-02-10T15:29:36.026Z,20.394592
2019-02-10T15:29:44.018Z,20.394592
2019-02-10T15:29:51.992Z,20.394592
2019-02-10T15:29:59.930Z,20.414734
2019-02-10T15:30:07.841Z,20.414734
2019-02-10T15:30:15.867Z,20.414734
2019-02-10T15:30:23.759Z,20.394592
2019-02-10T15:30:31.666Z,20.394592
2019-02-10T15:30:39.640Z,20.414734
2019-02-10T15:30:47.551Z,20.414734
2019-02-10T15:30:55.585Z,20.414734
2019-02-10T15:31:03.481Z,20.414734
2019-02-10T15:31:11.392Z,20.434875
2019-02-10T15:31:19.263Z,20.434875
2019-02-10T15:31:27.220Z,20.414734
2019-02-10T15:31:35.189Z,20.414734
2019-02-10T15:31:43.068Z,20.434875
2019-02-10T15:31:51.008Z,20.414734
2019-02-10T15:32:00.927Z,20.434875
2019-02-10T15:32:16.403Z,20.394592
2019-02-10T15:32:20.797Z,20.414734
2019-02-10T15:32:28.783Z,20.434875
2019-02-10T15:32:36.648Z,20.414734
2019-02-10T15:32:44.523Z,20.414734
2019-02-10T15:32:52.486Z,20.414734
2019-02-10T15:33:01.463Z,20.434875
2019-02-10T15:33:10.320Z,20.414734
2019-02-10T15:33:18.246Z,20.444946
2019-02-10T15:33:26.202Z,20.444946
2019-02-10T15:33:34.144Z,20.434875
2019-02-10T15:33:42.139Z,20.434875
2019-02-10T15:33:50.511Z,20.444946
2019-02-10T15:33:58.415Z,20.444946
2019-02-10T15:34:07.487Z,20.434875
2019-02-10T15:34:19.087Z,20.444946
2019-02-10T15:34:31.815Z,20.444946
2019-02-10T15:34:44.491Z,20.434875
2019-02-10T15:34:53.783Z,20.444946
2019-02-10T15:35:02.375Z,20.444946
2019-02-10T15:35:13.282Z,20.444946
2019-02-10T15:35:24.065Z,20.434875
2019-02-10T15:35:33.994Z,20.444946
2019-02-10T15:35:43.340Z,20.444946
2019-02-10T15:35:51.248Z,20.444946
2019-02-10T15:35:59.170Z,20.444946
2019-02-10T15:36:07.054Z,20.444946
2019-02-10T15:36:15.631Z,20.444946
2019-02-10T15:36:26.657Z,20.444946
2019-02-10T15:36:36.150Z,20.444946
2019-02-10T15:36:44.056Z,20.444946
2019-02-10T15:36:52.010Z,20.444946
2019-02-10T15:36:59.940Z,20.444946
2019-02-10T15:37:08.862Z,20.444946
2019-02-10T15:37:17.556Z,20.465088
2019-02-10T15:37:27.122Z,20.444946
2019-02-10T15:37:35.074Z,20.465088
2019-02-10T15:37:44.081Z,20.465088
2019-02-10T15:37:51.987Z,20.465088
2019-02-10T15:38:01.213Z,20.465088
2019-02-10T15:38:11.541Z,20.444946
2019-02-10T15:38:22.824Z,20.465088
2019-02-10T15:38:30.712Z,20.465088
2019-02-10T15:38:39.572Z,20.465088
2019-02-10T15:38:47.474Z,20.465088
2019-02-10T15:38:55.391Z,20.465088
2019-02-10T15:39:03.373Z,20.465088
2019-02-10T15:39:11.266Z,20.475159
2019-02-10T15:39:22.742Z,20.465088
2019-02-10T15:39:33.469Z,20.465088
2019-02-10T15:39:41.376Z,20.475159
2019-02-10T15:39:49.341Z,20.475159
2019-02-10T15:39:57.258Z,20.465088
2019-02-10T15:40:05.273Z,20.475159
2019-02-10T15:40:13.333Z,20.475159
2019-02-10T15:40:21.220Z,20.465088
2019-02-10T15:40:29.131Z,20.475159
2019-02-10T15:40:37.067Z,20.475159
2019-02-10T15:40:50.140Z,20.475159
2019-02-10T15:40:57.853Z,20.475159
2019-02-10T15:41:05.744Z,20.475159
2019-02-10T15:41:13.614Z,20.475159
2019-02-10T15:41:21.475Z,20.475159
2019-02-10T15:41:30.391Z,20.465088
2019-02-10T15:41:38.438Z,20.485229
2019-02-10T15:41:46.354Z,20.485229
2019-02-10T15:41:55.286Z,20.475159
2019-02-10T15:42:09.339Z,20.485229
2019-02-10T15:42:15.065Z,20.485229
2019-02-10T15:42:23.096Z,20.485229
2019-02-10T15:42:31.038Z,20.485229
2019-02-10T15:42:38.938Z,20.475159
2019-02-10T15:42:46.861Z,20.485229
2019-02-10T15:42:54.754Z,20.505371
2019-02-10T15:43:02.697Z,20.505371
2019-02-10T15:43:10.567Z,20.485229
2019-02-10T15:43:18.493Z,20.485229
2019-02-10T15:43:26.376Z,20.485229
2019-02-10T15:43:34.240Z,20.485229
2019-02-10T15:43:42.229Z,20.485229
2019-02-10T15:43:50.137Z,20.485229
2019-02-10T15:43:58.090Z,20.485229
2019-02-10T15:44:05.987Z,20.485229
2019-02-10T15:44:13.870Z,20.505371
2019-02-10T15:44:21.782Z,20.485229
2019-02-10T15:44:29.655Z,20.505371
2019-02-10T15:44:37.558Z,20.505371
2019-02-10T15:44:47.418Z,20.505371
2019-02-10T15:44:55.353Z,20.505371
2019-02-10T15:45:03.228Z,20.505371
2019-02-10T15:45:12.101Z,20.505371
2019-02-10T15:45:21.042Z,20.505371
2019-02-10T15:45:28.943Z,20.505371
2019-02-10T15:45:36.837Z,20.505371
2019-02-10T15:45:44.702Z,20.505371
2019-02-10T15:45:52.615Z,20.485229
2019-02-10T15:46:00.469Z,20.505371
2019-02-10T15:46:08.343Z,20.505371
2019-02-10T15:46:16.234Z,20.505371
2019-02-10T15:46:24.118Z,20.505371
2019-02-10T15:46:32.011Z,20.515442
2019-02-10T15:46:39.920Z,20.515442
2019-02-10T15:46:47.859Z,20.515442
2019-02-10T15:46:55.845Z,20.505371
2019-02-10T15:47:03.715Z,20.515442
2019-02-10T15:47:11.632Z,20.515442
2019-02-10T15:47:19.508Z,20.505371
2019-02-10T15:47:27.408Z,20.515442
2019-02-10T15:47:35.341Z,20.505371
2019-02-10T15:47:43.233Z,20.505371
2019-02-10T15:47:51.113Z,20.515442
2019-02-10T15:47:59.081Z,20.505371
2019-02-10T15:48:09.468Z,20.515442
2019-02-10T15:48:16.960Z,20.515442
2019-02-10T15:48:24.844Z,20.515442
2019-02-10T15:48:32.805Z,20.505371
2019-02-10T15:48:40.734Z,20.515442
2019-02-10T15:48:48.625Z,20.515442
2019-02-10T15:48:56.524Z,20.515442
2019-02-10T15:49:04.432Z,20.515442
2019-02-10T15:49:12.369Z,20.515442
2019-02-10T15:49:21.201Z,20.515442
2019-02-10T15:49:29.076Z,20.515442
2019-02-10T15:49:36.991Z,20.535583
2019-02-10T15:49:44.918Z,20.515442
2019-02-10T15:49:53.829Z,20.535583
2019-02-10T15:50:03.409Z,20.515442
2019-02-10T15:50:10.587Z,20.535583
2019-02-10T15:50:18.501Z,20.535583
2019-02-10T15:50:26.378Z,20.515442
2019-02-10T15:50:34.248Z,20.535583
2019-02-10T15:50:42.118Z,20.535583
2019-02-10T15:50:50.072Z,20.535583
2019-02-10T15:50:57.942Z,20.535583
2019-02-10T15:51:05.823Z,20.535583
2019-02-10T15:51:13.701Z,20.535583
2019-02-10T15:51:28.713Z,20.535583
2019-02-10T15:51:37.486Z,20.535583
2019-02-10T15:51:45.393Z,20.545654
2019-02-10T15:51:53.270Z,20.535583
2019-02-10T15:52:01.175Z,20.535583
2019-02-10T15:52:09.087Z,20.535583
2019-02-10T15:52:17.996Z,20.535583
2019-02-10T15:52:25.874Z,20.545654
2019-02-10T15:52:33.800Z,20.545654
2019-02-10T15:52:41.753Z,20.535583
2019-02-10T15:52:49.661Z,20.545654
2019-02-10T15:52:57.572Z,20.545654
2019-02-10T15:53:05.542Z,20.545654
2019-02-10T15:53:13.516Z,20.545654
2019-02-10T15:53:21.469Z,20.565796
2019-02-10T15:53:29.470Z,20.545654
2019-02-10T15:53:37.462Z,20.535583
2019-02-10T15:53:45.312Z,20.545654
2019-02-10T15:53:53.191Z,20.545654
2019-02-10T15:54:01.139Z,20.545654
2019-02-10T15:54:10.183Z,20.545654
2019-02-10T15:54:17.892Z,20.545654
2019-02-10T15:54:26.013Z,20.545654
2019-02-10T15:54:33.888Z,20.565796
2019-02-10T15:54:41.831Z,20.545654
2019-02-10T15:54:49.703Z,20.565796
2019-02-10T15:54:57.712Z,20.545654
2019-02-10T15:55:05.628Z,20.565796
2019-02-10T15:55:13.512Z,20.575867
2019-02-10T15:55:21.419Z,20.565796
2019-02-10T15:55:29.316Z,20.545654
2019-02-10T15:55:37.371Z,20.545654
2019-02-10T15:55:45.268Z,20.575867
2019-02-10T15:55:53.165Z,20.565796
2019-02-10T15:56:01.118Z,20.565796
2019-02-10T15:56:09.007Z,20.565796
2019-02-10T15:56:16.900Z,20.565796
2019-02-10T15:56:24.840Z,20.565796
2019-02-10T15:56:32.790Z,20.575867
2019-02-10T15:56:40.728Z,20.575867
2019-02-10T15:56:48.686Z,20.575867
2019-02-10T15:56:56.581Z,20.565796
2019-02-10T15:57:05.480Z,20.575867
2019-02-10T15:57:13.330Z,20.565796
2019-02-10T15:57:21.262Z,20.575867
2019-02-10T15:57:29.206Z,20.575867
2019-02-10T15:57:37.119Z,20.565796
2019-02-10T15:57:45.026Z,20.575867
2019-02-10T15:57:52.958Z,20.565796
2019-02-10T15:58:00.820Z,20.565796
2019-02-10T15:58:08.741Z,20.565796
2019-02-10T15:58:16.704Z,20.575867
2019-02-10T15:58:26.668Z,20.585938
2019-02-10T15:58:34.588Z,20.585938
2019-02-10T15:58:43.498Z,20.585938
2019-02-10T15:58:52.443Z,20.575867
2019-02-10T15:59:00.348Z,20.585938
2019-02-10T15:59:08.244Z,20.575867
2019-02-10T15:59:16.159Z,20.585938
2019-02-10T15:59:24.080Z,20.575867
2019-02-10T15:59:31.990Z,20.575867
2019-02-10T15:59:39.877Z,20.585938
2019-02-10T15:59:47.893Z,20.575867
2019-02-10T15:59:55.796Z,20.585938
2019-02-10T16:00:03.692Z,20.585938
2019-02-10T16:00:11.590Z,20.585938
2019-02-10T16:00:19.473Z,20.585938
2019-02-10T16:00:28.382Z,20.575867
2019-02-10T16:00:36.330Z,20.606079
2019-02-10T16:00:44.220Z,20.585938
2019-02-10T16:00:52.123Z,20.585938
2019-02-10T16:01:01.016Z,20.585938
2019-02-10T16:01:08.952Z,20.606079
2019-02-10T16:01:16.832Z,20.585938
2019-02-10T16:01:24.749Z,20.585938
2019-02-10T16:01:32.643Z,20.585938
2019-02-10T16:01:40.682Z,20.585938
2019-02-10T16:01:48.600Z,20.585938